Главная страница
METAR-TAF:

METAR-TAF

Аэропорты :

Doylestown Airport

Doylestown, Пенсильвания, США

широта: 40-19-48N, долгота: 075-07-21W, высота над уровнем моря: 120 м

Текущие метеонаблюдения

Эта сводка был подготовлена 33 минут назад, в 21:54 UTC
Ветер 4 Узел от южный
Температура 10°C
Влажность 53%
Давление 1021 hPa
Видимость: 16.1 км
ясное небо

METAR: KDYL 222154Z AUTO 18004KT 10SM CLR 10/01 A3015 RMK AO2 SLP212 T01000006

Время: 18:27 (22:27 UTC)


TAF: отсутствует

Метеонаблюдения и прогнозы для более 4000 аэропортов (сводки METAR и TAF).

Имеющиеся станции представлены на карте желтыми и красными точками.

Чтобы увидеть название станции, наведите на нее мышь.

Затем щелкните, чтобы увидеть метеонаблюдения и метеопрогнозы.

Управление картой: чтобы увеличить масштаб, щелкните зеленые кнопки с черным крестиком; чтобы уменьшить масштаб, щелкните зеленую кнопку с тире; для просмотра соседних карт щелкайте зеленые стрелки.


METAR-TAF: